Time;durP1;ratioP1;P1;durP2;ratioP2;P2;SDS_P1;SDS_P2;PMS_P1;PMS_P2;Temp;Humidity;BMP_temperature;BMP_pressure;BME280_temperature;BME280_humidity;BME280_pressure;Samples;Min_cycle;Max_cycle;Signal;HPM_P1;HPM_P2
2023/06/22 00:01:28;;;;;;;1.92;1.00;;;27.60;44.80;;;;;;5046800;28;20049;-59
2023/06/22 00:03:54;;;;;;;0.70;0.70;;;27.60;44.80;;;;;;5032656;28;20029;-63
2023/06/22 00:06:20;;;;;;;1.02;0.90;;;27.60;44.80;;;;;;5041848;28;20126;-63
2023/06/22 00:08:47;;;;;;;1.17;1.00;;;27.60;44.70;;;;;;5044345;28;20024;-61
2023/06/22 00:11:12;;;;;;;1.23;0.90;;;27.60;44.60;;;;;;5019639;28;20125;-58
2023/06/22 00:13:39;;;;;;;1.10;0.88;;;27.60;44.60;;;;;;5003172;28;20708;-60
2023/06/22 00:16:05;;;;;;;1.80;1.15;;;27.60;44.50;;;;;;5044145;28;20087;-64
2023/06/22 00:18:31;;;;;;;0.95;0.85;;;27.60;44.40;;;;;;5038108;28;20125;-59
2023/06/22 00:20:58;;;;;;;1.42;0.90;;;27.60;44.40;;;;;;5041867;28;20105;-63
2023/06/22 00:23:24;;;;;;;0.93;0.77;;;27.50;44.30;;;;;;5040186;28;21969;-63
2023/06/22 00:25:50;;;;;;;2.03;1.05;;;27.50;44.30;;;;;;5030378;28;20037;-59
2023/06/22 00:28:16;;;;;;;1.00;0.80;;;27.50;44.30;;;;;;5043989;28;20017;-62
2023/06/22 00:30:42;;;;;;;0.90;0.80;;;27.50;44.30;;;;;;5043043;28;20287;-61
2023/06/22 00:33:08;;;;;;;1.20;0.77;;;27.50;44.30;;;;;;5044278;28;20064;-60
2023/06/22 00:35:34;;;;;;;1.15;1.00;;;27.50;44.30;;;;;;5025543;28;20052;-60
2023/06/22 00:38:02;;;;;;;1.10;0.80;;;27.50;44.30;;;;;;5040643;28;20025;-60
2023/06/22 00:40:32;;;;;;;2.38;0.90;;;27.50;44.40;;;;;;5027115;28;20088;-60
2023/06/22 00:42:58;;;;;;;2.55;1.05;;;27.50;44.40;;;;;;5023435;28;20029;-64
2023/06/22 00:45:25;;;;;;;1.38;0.80;;;27.50;44.50;;;;;;5020492;28;20048;-62
2023/06/22 00:47:56;;;;;;;1.60;0.90;;;27.50;44.50;;;;;;5026617;28;20059;-63
2023/06/22 00:50:26;;;;;;;0.98;0.70;;;27.50;44.50;;;;;;5043450;28;20109;-60
2023/06/22 00:52:56;;;;;;;1.70;0.82;;;27.50;44.50;;;;;;5043805;28;20067;-61
2023/06/22 00:55:23;;;;;;;1.35;0.70;;;27.40;44.50;;;;;;5045733;28;20140;-61
2023/06/22 00:57:49;;;;;;;1.48;0.82;;;27.50;44.60;;;;;;5042526;28;20136;-62
2023/06/22 01:00:20;;;;;;;1.38;0.80;;;27.40;44.50;;;;;;5022233;28;20225;-64
2023/06/22 01:02:46;;;;;;;1.23;0.90;;;27.40;44.50;;;;;;5024359;28;20120;-63
2023/06/22 01:05:17;;;;;;;1.15;1.00;;;27.40;44.50;;;;;;5019175;28;20120;-60
2023/06/22 01:07:56;;;;;;;1.48;1.00;;;27.40;44.60;;;;;;5036377;28;20077;-63
2023/06/22 01:10:53;;;;;;;1.50;0.90;;;27.40;44.60;;;;;;5028054;28;20071;-62
2023/06/22 01:13:48;;;;;;;0.70;0.70;;;27.40;44.60;;;;;;5042938;28;20454;-63
2023/06/22 01:16:38;;;;;;;2.45;1.02;;;27.40;44.70;;;;;;4997485;28;20064;-64
2023/06/22 01:19:47;;;;;;;1.45;0.90;;;27.40;44.70;;;;;;5043966;28;20302;-61
2023/06/22 01:22:20;;;;;;;1.65;1.00;;;27.40;44.70;;;;;;5021575;28;20046;-60
2023/06/22 01:24:59;;;;;;;1.50;1.00;;;27.40;44.80;;;;;;5043142;28;20093;-63
2023/06/22 01:27:45;;;;;;;1.38;0.90;;;27.30;44.70;;;;;;5026482;28;20072;-62
2023/06/22 01:30:12;;;;;;;1.60;0.88;;;27.30;44.70;;;;;;5016376;28;20033;-63
2023/06/22 01:32:40;;;;;;;1.88;1.10;;;27.30;44.70;;;;;;5023293;28;20108;-62
2023/06/22 01:35:08;;;;;;;2.72;1.02;;;27.30;44.80;;;;;;5028305;28;20036;-61
2023/06/22 01:37:36;;;;;;;1.23;0.90;;;27.30;44.80;;;;;;5042242;28;20120;-61
2023/06/22 01:40:05;;;;;;;1.90;1.10;;;27.30;44.80;;;;;;5048975;28;20025;-59
2023/06/22 01:42:32;;;;;;;1.23;0.90;;;27.30;44.80;;;;;;5045042;28;20043;-61
2023/06/22 01:45:00;;;;;;;1.25;0.80;;;27.30;44.80;;;;;;5026767;28;20176;-62
2023/06/22 01:47:27;;;;;;;1.92;1.17;;;27.30;44.80;;;;;;5045833;28;20421;-63
2023/06/22 01:49:54;;;;;;;1.00;0.90;;;27.30;44.80;;;;;;5042010;28;20111;-61
2023/06/22 01:52:21;;;;;;;1.88;0.82;;;27.20;44.70;;;;;;5042009;28;20147;-61
2023/06/22 01:54:48;;;;;;;1.70;0.90;;;27.20;44.70;;;;;;5021958;28;20028;-59
2023/06/22 01:57:14;;;;;;;1.20;0.80;;;27.20;44.70;;;;;;5044950;28;20398;-60
2023/06/22 01:59:50;;;;;;;1.60;1.02;;;27.20;44.70;;;;;;5022179;28;20032;-60
2023/06/22 02:02:20;;;;;;;1.65;0.90;;;27.30;44.80;;;;;;5024344;28;20067;-60
2023/06/22 02:05:06;;;;;;;1.50;1.00;;;27.20;44.80;;;;;;5040660;28;20131;-61
2023/06/22 02:07:46;;;;;;;1.27;0.90;;;27.20;44.80;;;;;;5020477;28;20081;-61
2023/06/22 02:10:15;;;;;;;1.33;0.90;;;27.20;44.80;;;;;;5040066;28;20064;-60
2023/06/22 02:12:43;;;;;;;1.83;1.20;;;27.20;45.00;;;;;;5045161;28;20052;-62
2023/06/22 02:15:10;;;;;;;1.45;0.75;;;27.20;44.80;;;;;;5042249;28;20029;-61
2023/06/22 02:17:36;;;;;;;2.28;1.05;;;27.20;44.80;;;;;;5021143;28;20037;-61
2023/06/22 02:20:07;;;;;;;2.00;1.10;;;27.20;44.80;;;;;;5023492;28;20140;-61
2023/06/22 02:22:33;;;;;;;1.70;1.10;;;27.20;44.90;;;;;;5041029;28;20052;-59
2023/06/22 02:24:59;;;;;;;1.63;1.10;;;27.20;44.90;;;;;;5021825;28;20017;-59
2023/06/22 02:27:25;;;;;;;1.52;1.05;;;27.10;44.80;;;;;;5042193;28;20025;-62
2023/06/22 02:29:51;;;;;;;1.60;1.10;;;27.10;44.80;;;;;;5022218;28;20199;-66
2023/06/22 02:32:17;;;;;;;1.88;1.00;;;27.10;44.90;;;;;;5039072;28;20036;-60
2023/06/22 02:34:47;;;;;;;1.33;1.10;;;27.10;44.90;;;;;;5018347;28;20344;-63
2023/06/22 02:37:15;;;;;;;1.70;1.17;;;27.10;44.90;;;;;;5022536;28;20132;-60
2023/06/22 02:39:41;;;;;;;0.80;0.80;;;27.10;45.00;;;;;;5041859;28;20216;-62
2023/06/22 02:42:07;;;;;;;1.63;1.00;;;27.10;45.00;;;;;;5021598;28;20056;-62
2023/06/22 02:44:33;;;;;;;1.50;1.00;;;27.10;45.00;;;;;;5042059;28;20072;-62
2023/06/22 02:46:59;;;;;;;2.35;1.05;;;27.10;45.00;;;;;;5043752;28;20045;-61
2023/06/22 02:49:25;;;;;;;1.48;1.10;;;27.10;45.00;;;;;;5025375;28;20032;-65
2023/06/22 02:51:51;;;;;;;1.67;1.27;;;27.10;45.10;;;;;;5027240;28;20102;-60
2023/06/22 02:54:20;;;;;;;2.20;1.20;;;27.10;45.10;;;;;;5019133;28;20028;-62
2023/06/22 02:56:48;;;;;;;1.85;1.15;;;27.10;45.10;;;;;;5023738;28;20495;-61
2023/06/22 02:59:14;;;;;;;1.73;1.30;;;27.00;45.10;;;;;;5024565;28;20033;-63
2023/06/22 03:01:40;;;;;;;1.50;1.30;;;27.00;45.10;;;;;;5023601;28;20358;-61
2023/06/22 03:04:15;;;;;;;1.73;1.38;;;27.10;45.20;;;;;;5024010;28;20439;-60
2023/06/22 03:06:41;;;;;;;1.67;1.30;;;27.00;45.20;;;;;;5018764;28;20432;-65
2023/06/22 03:09:08;;;;;;;1.55;1.23;;;27.10;45.30;;;;;;5020910;28;20081;-61
2023/06/22 03:11:35;;;;;;;2.58;1.30;;;27.00;45.30;;;;;;5023819;28;20093;-62
2023/06/22 03:14:02;;;;;;;1.40;1.20;;;27.00;45.30;;;;;;5023333;28;20409;-63
2023/06/22 03:16:29;;;;;;;1.73;1.25;;;27.00;45.30;;;;;;5022230;28;20117;-63
2023/06/22 03:18:55;;;;;;;1.48;1.20;;;27.00;45.40;;;;;;5021569;28;20017;-63
2023/06/22 03:21:28;;;;;;;2.33;1.40;;;27.00;45.40;;;;;;5009712;28;20437;-63
2023/06/22 03:23:54;;;;;;;2.20;1.38;;;27.00;45.50;;;;;;5028443;28;20033;-60
2023/06/22 03:26:20;;;;;;;3.25;1.58;;;27.00;45.50;;;;;;5026135;28;20341;-64
2023/06/22 03:28:46;;;;;;;2.72;1.48;;;27.00;45.60;;;;;;5045378;28;20131;-62
2023/06/22 03:31:12;;;;;;;1.70;1.30;;;27.00;45.70;;;;;;5026721;28;20123;-60
2023/06/22 03:33:40;;;;;;;1.98;1.63;;;27.00;45.70;;;;;;5027527;28;20033;-63
2023/06/22 03:36:06;;;;;;;2.20;1.70;;;27.00;45.90;;;;;;5026925;28;20045;-60
2023/06/22 03:38:32;;;;;;;1.85;1.40;;;27.00;45.90;;;;;;5046880;28;20321;-64
2023/06/22 03:40:58;;;;;;;2.17;1.63;;;26.90;45.90;;;;;;5014504;28;20053;-65
2023/06/22 03:43:25;;;;;;;2.17;1.40;;;26.90;46.00;;;;;;5019810;28;20143;-62
2023/06/22 03:45:51;;;;;;;2.47;1.85;;;27.00;46.10;;;;;;5020157;28;20174;-65
2023/06/22 03:48:16;;;;;;;2.00;1.50;;;26.90;46.10;;;;;;5022456;28;20044;-60
2023/06/22 03:50:43;;;;;;;2.58;1.70;;;27.00;46.30;;;;;;5017863;28;20041;-59
2023/06/22 03:53:10;;;;;;;2.70;1.67;;;26.90;46.20;;;;;;5021901;28;20113;-61
2023/06/22 03:55:37;;;;;;;2.47;1.45;;;26.90;46.20;;;;;;5022048;28;20176;-58
2023/06/22 03:58:05;;;;;;;3.20;1.40;;;26.90;46.30;;;;;;5027522;28;20147;-62
2023/06/22 04:00:32;;;;;;;2.35;1.70;;;26.90;46.30;;;;;;5023042;28;20044;-63
2023/06/22 04:02:58;;;;;;;2.25;1.50;;;26.90;46.40;;;;;;5022502;28;20018;-62
2023/06/22 04:05:24;;;;;;;3.08;1.77;;;26.90;46.50;;;;;;5023800;28;20059;-58
2023/06/22 04:07:50;;;;;;;2.30;1.60;;;26.90;46.50;;;;;;5019003;28;20093;-59
2023/06/22 04:10:16;;;;;;;2.33;1.70;;;26.90;46.60;;;;;;5023447;28;20099;-64
2023/06/22 04:12:41;;;;;;;2.28;1.90;;;26.90;46.60;;;;;;5024066;28;20021;-60
2023/06/22 04:15:08;;;;;;;1.70;1.50;;;26.90;46.60;;;;;;5025023;28;20394;-62
2023/06/22 04:17:34;;;;;;;3.00;1.92;;;26.90;46.70;;;;;;5019072;28;20049;-62
2023/06/22 04:19:59;;;;;;;3.67;1.98;;;26.90;46.70;;;;;;5025180;28;20376;-63
2023/06/22 04:22:25;;;;;;;3.08;2.10;;;26.90;46.80;;;;;;5029079;28;20026;-64
2023/06/22 04:24:52;;;;;;;4.20;1.90;;;26.90;46.80;;;;;;5026069;28;20041;-62
2023/06/22 04:27:19;;;;;;;3.00;2.13;;;26.80;46.80;;;;;;5027850;28;20141;-63
2023/06/22 04:29:48;;;;;;;2.20;1.70;;;26.90;46.90;;;;;;5026901;28;20045;-61
2023/06/22 04:32:15;;;;;;;2.05;1.63;;;26.80;46.90;;;;;;5025356;28;20139;-61
2023/06/22 04:34:41;;;;;;;2.88;1.83;;;26.80;47.00;;;;;;5027535;28;20044;-61
2023/06/22 04:37:07;;;;;;;3.58;2.08;;;26.80;47.00;;;;;;5022019;28;20053;-60
2023/06/22 04:39:33;;;;;;;2.35;2.10;;;26.80;47.00;;;;;;5015858;28;20018;-63
2023/06/22 04:42:00;;;;;;;3.15;2.20;;;26.80;47.10;;;;;;5017198;28;20021;-62
2023/06/22 04:44:26;;;;;;;3.22;2.20;;;26.80;47.10;;;;;;5030499;28;20122;-62
2023/06/22 04:47:08;;;;;;;3.13;2.05;;;26.80;47.20;;;;;;5037435;28;20072;-61
2023/06/22 04:49:37;;;;;;;2.80;2.08;;;26.80;47.20;;;;;;5043646;28;20167;-62
2023/06/22 04:52:04;;;;;;;3.42;2.30;;;26.80;47.30;;;;;;5020754;28;20934;-62
2023/06/22 04:54:32;;;;;;;3.53;2.70;;;26.80;47.40;;;;;;5043645;28;20069;-60
2023/06/22 04:56:59;;;;;;;2.63;2.10;;;26.80;47.40;;;;;;5040591;28;20087;-62
2023/06/22 04:59:30;;;;;;;3.85;2.30;;;26.80;47.40;;;;;;5044685;28;20092;-61
2023/06/22 05:01:57;;;;;;;2.70;2.10;;;26.80;47.50;;;;;;5044771;28;20142;-61
2023/06/22 05:04:23;;;;;;;3.92;2.58;;;26.80;47.50;;;;;;5044733;28;20044;-62
2023/06/22 05:06:52;;;;;;;2.90;2.22;;;26.80;47.60;;;;;;5041896;28;20025;-61
2023/06/22 05:09:19;;;;;;;3.55;2.53;;;26.80;47.60;;;;;;5040858;28;20040;-61
2023/06/22 05:11:45;;;;;;;4.72;2.30;;;26.80;47.70;;;;;;5042342;28;20325;-64
2023/06/22 05:14:11;;;;;;;3.50;2.30;;;26.80;47.80;;;;;;5022526;28;20045;-63
2023/06/22 05:16:38;;;;;;;3.55;2.72;;;26.80;47.80;;;;;;5042548;28;20029;-61
2023/06/22 05:19:04;;;;;;;2.83;2.20;;;26.80;47.90;;;;;;5042581;28;20025;-63
2023/06/22 05:21:30;;;;;;;4.28;2.45;;;26.80;47.90;;;;;;5044877;28;20408;-62
2023/06/22 05:24:02;;;;;;;3.08;2.50;;;26.80;48.00;;;;;;5047095;28;20048;-63
2023/06/22 05:26:29;;;;;;;3.95;2.20;;;26.80;48.00;;;;;;5022807;28;20437;-62
2023/06/22 05:28:56;;;;;;;3.50;2.40;;;26.80;48.10;;;;;;5046943;28;20036;-64
2023/06/22 05:31:22;;;;;;;3.67;2.40;;;26.80;48.10;;;;;;5042757;28;20057;-66
2023/06/22 05:33:49;;;;;;;3.97;2.20;;;26.80;48.10;;;;;;5047462;28;20049;-63
2023/06/22 05:36:15;;;;;;;3.63;2.60;;;26.80;48.10;;;;;;5045147;28;20055;-62
2023/06/22 05:38:41;;;;;;;5.40;3.15;;;26.80;48.20;;;;;;5042132;28;20400;-61
2023/06/22 05:41:08;;;;;;;4.15;3.28;;;26.80;48.30;;;;;;5017605;28;20108;-63
2023/06/22 05:43:34;;;;;;;6.50;3.22;;;26.80;48.30;;;;;;5043555;28;20429;-62
2023/06/22 05:46:01;;;;;;;5.72;3.78;;;26.80;48.40;;;;;;5044375;28;20066;-61
2023/06/22 05:48:27;;;;;;;8.95;4.13;;;26.80;48.40;;;;;;5044752;28;20103;-60
2023/06/22 05:50:54;;;;;;;9.82;4.28;;;26.80;48.40;;;;;;5042018;28;20049;-62
2023/06/22 05:53:20;;;;;;;8.02;3.85;;;26.80;48.50;;;;;;5044193;28;20043;-60
2023/06/22 05:55:46;;;;;;;7.40;3.72;;;26.80;48.50;;;;;;5041916;28;20021;-64
2023/06/22 05:58:13;;;;;;;7.03;4.13;;;26.80;48.50;;;;;;5043810;28;20033;-61
2023/06/22 06:00:39;;;;;;;5.55;3.53;;;26.80;48.60;;;;;;5043604;28;20029;-62
2023/06/22 06:03:06;;;;;;;6.50;3.40;;;26.80;48.60;;;;;;5040472;28;20029;-65
2023/06/22 06:05:33;;;;;;;8.32;3.00;;;26.80;48.60;;;;;;5039925;28;20110;-61
2023/06/22 06:08:00;;;;;;;5.70;3.15;;;26.80;48.60;;;;;;5041321;28;20139;-60
2023/06/22 06:10:27;;;;;;;5.63;3.10;;;26.80;48.60;;;;;;5021784;28;20108;-60
2023/06/22 06:12:53;;;;;;;5.72;3.33;;;26.80;48.60;;;;;;5020011;28;20073;-64
2023/06/22 06:15:19;;;;;;;4.47;2.88;;;26.80;48.60;;;;;;5022801;28;20040;-61
2023/06/22 06:17:49;;;;;;;5.00;3.00;;;26.80;48.60;;;;;;5019077;28;20167;-62
2023/06/22 06:20:18;;;;;;;6.45;2.67;;;26.80;48.60;;;;;;5043470;28;21627;-64
2023/06/22 06:22:44;;;;;;;5.65;2.90;;;26.80;48.60;;;;;;5039448;28;20035;-60
2023/06/22 06:25:15;;;;;;;3.25;2.28;;;26.80;48.60;;;;;;5044895;28;20428;-62
2023/06/22 06:27:49;;;;;;;2.58;2.20;;;26.80;48.60;;;;;;5041447;28;20037;-63
2023/06/22 06:30:16;;;;;;;2.92;2.10;;;26.80;48.50;;;;;;5017945;28;20021;-62
2023/06/22 06:32:45;;;;;;;3.22;2.03;;;26.80;48.40;;;;;;5038310;28;20072;-61
2023/06/22 06:35:13;;;;;;;2.92;1.83;;;26.80;48.30;;;;;;5036543;28;20111;-62
2023/06/22 06:37:40;;;;;;;4.88;2.20;;;26.80;48.20;;;;;;5040061;28;20041;-61
2023/06/22 06:40:10;;;;;;;3.33;2.17;;;26.90;48.20;;;;;;5041057;28;20037;-61
2023/06/22 06:42:41;;;;;;;4.03;2.50;;;26.90;48.30;;;;;;5044000;28;20035;-62
2023/06/22 06:45:12;;;;;;;3.70;2.90;;;26.90;48.40;;;;;;5044675;28;20113;-60
2023/06/22 06:47:38;;;;;;;2.53;1.98;;;26.90;48.40;;;;;;5040704;28;20053;-60
2023/06/22 06:50:05;;;;;;;3.22;2.25;;;26.90;48.50;;;;;;5038016;28;20026;-61
2023/06/22 06:52:31;;;;;;;3.15;2.33;;;26.90;48.60;;;;;;5030917;28;20290;-61
2023/06/22 06:54:57;;;;;;;3.25;2.20;;;26.90;48.60;;;;;;5031161;28;20154;-65
2023/06/22 06:57:23;;;;;;;2.53;2.17;;;26.90;48.60;;;;;;5041659;28;20080;-63
2023/06/22 06:59:49;;;;;;;2.85;1.90;;;26.90;48.60;;;;;;5039094;28;20150;-63
2023/06/22 07:02:18;;;;;;;2.65;2.15;;;26.90;48.70;;;;;;5043891;28;20116;-65
2023/06/22 07:04:44;;;;;;;2.42;1.90;;;26.90;48.70;;;;;;5044771;28;20025;-63
2023/06/22 07:07:10;;;;;;;2.80;2.13;;;26.90;48.60;;;;;;5019461;28;20048;-63
2023/06/22 07:09:36;;;;;;;2.47;1.88;;;26.90;48.60;;;;;;5037561;28;20029;-64
2023/06/22 07:12:02;;;;;;;2.40;1.80;;;27.00;48.50;;;;;;5050479;28;20274;-62
2023/06/22 07:14:28;;;;;;;2.40;1.90;;;27.00;48.40;;;;;;5022932;28;20029;-60
2023/06/22 07:16:54;;;;;;;2.63;1.90;;;27.00;48.40;;;;;;5034269;28;20037;-59
2023/06/22 07:19:27;;;;;;;2.45;1.90;;;27.00;48.30;;;;;;5050215;28;20102;-59
2023/06/22 07:21:54;;;;;;;2.78;1.75;;;27.10;48.20;;;;;;5045990;28;20030;-59
2023/06/22 07:24:23;;;;;;;1.65;1.55;;;27.10;48.20;;;;;;5043551;28;20049;-61
2023/06/22 07:26:50;;;;;;;2.92;1.33;;;27.10;48.10;;;;;;5042079;28;20107;-61
2023/06/22 07:29:17;;;;;;;1.67;1.40;;;27.10;48.00;;;;;;5017579;28;20063;-61
2023/06/22 07:31:44;;;;;;;1.73;1.30;;;27.10;47.90;;;;;;5038515;28;20025;-61
2023/06/22 07:34:10;;;;;;;3.25;1.60;;;27.20;47.90;;;;;;5039342;28;20045;-62
2023/06/22 07:36:37;;;;;;;1.73;1.40;;;27.20;47.90;;;;;;5018684;28;20029;-62
2023/06/22 07:39:03;;;;;;;2.22;1.70;;;27.20;47.80;;;;;;5044026;28;20400;-60
2023/06/22 07:41:30;;;;;;;1.50;1.40;;;27.20;47.70;;;;;;5027497;28;20475;-63
2023/06/22 07:43:56;;;;;;;2.17;1.50;;;27.20;47.70;;;;;;5038532;28;20052;-64
2023/06/22 07:46:23;;;;;;;1.80;1.50;;;27.20;47.60;;;;;;5038384;28;20033;-60
2023/06/22 07:48:49;;;;;;;1.20;1.00;;;27.20;47.60;;;;;;5043038;28;20131;-64
2023/06/22 07:51:22;;;;;;;1.50;1.40;;;27.20;47.50;;;;;;5017394;28;20057;-61
2023/06/22 07:53:48;;;;;;;1.40;1.30;;;27.30;47.60;;;;;;5046604;28;20095;-62
2023/06/22 07:56:18;;;;;;;2.42;1.40;;;27.30;47.50;;;;;;5049575;28;20052;-61
2023/06/22 07:58:48;;;;;;;1.42;1.30;;;27.30;47.50;;;;;;5049229;28;20059;-63
2023/06/22 08:01:15;;;;;;;1.83;1.50;;;27.30;47.40;;;;;;5047734;28;20029;-67
2023/06/22 08:03:41;;;;;;;1.30;1.20;;;27.30;47.40;;;;;;5046599;28;20028;-65
2023/06/22 08:06:09;;;;;;;3.22;1.50;;;27.30;47.30;;;;;;5043393;28;20301;-61
2023/06/22 08:08:38;;;;;;;2.42;1.58;;;27.30;47.30;;;;;;5032712;28;20071;-64
2023/06/22 08:11:06;;;;;;;1.63;1.33;;;27.30;47.30;;;;;;5048087;28;20029;-67
2023/06/22 08:13:32;;;;;;;1.40;1.20;;;27.30;47.20;;;;;;5035354;28;20107;-62
2023/06/22 08:15:58;;;;;;;1.58;1.30;;;27.30;47.20;;;;;;5047369;28;20030;-62
2023/06/22 08:18:24;;;;;;;1.88;1.30;;;27.40;47.20;;;;;;5047754;28;20095;-65
2023/06/22 08:20:50;;;;;;;1.67;1.35;;;27.40;47.20;;;;;;5050111;28;20484;-63
2023/06/22 08:23:16;;;;;;;1.92;1.55;;;27.30;47.00;;;;;;5053349;28;20052;-61
2023/06/22 08:25:42;;;;;;;1.73;1.10;;;27.40;47.10;;;;;;5051467;28;20103;-62
2023/06/22 08:28:08;;;;;;;1.23;1.10;;;27.40;47.10;;;;;;5030489;28;20094;-62
2023/06/22 08:30:34;;;;;;;1.42;1.33;;;27.40;47.00;;;;;;5050422;28;20029;-61
2023/06/22 08:33:00;;;;;;;1.88;1.20;;;27.40;47.00;;;;;;5046908;28;20074;-62
2023/06/22 08:35:26;;;;;;;1.75;1.20;;;27.40;47.20;;;;;;5041942;28;20028;-62
2023/06/22 08:37:54;;;;;;;1.75;1.42;;;27.40;46.90;;;;;;5052984;28;20045;-63
2023/06/22 08:40:20;;;;;;;1.35;1.25;;;27.40;46.90;;;;;;5041025;28;20030;-62
2023/06/22 08:42:47;;;;;;;2.35;1.33;;;27.40;46.90;;;;;;5047218;28;20073;-62
2023/06/22 08:45:14;;;;;;;1.90;1.35;;;27.40;46.80;;;;;;5024103;28;20081;-62
2023/06/22 08:47:41;;;;;;;2.97;1.35;;;27.50;46.90;;;;;;5047565;28;20081;-61
2023/06/22 08:50:08;;;;;;;1.30;1.15;;;27.50;46.80;;;;;;5042199;28;20035;-61
2023/06/22 08:52:35;;;;;;;1.40;1.30;;;27.50;46.80;;;;;;5046731;28;20055;-61
2023/06/22 08:55:01;;;;;;;1.30;1.10;;;27.50;46.80;;;;;;5044091;28;21085;-58
2023/06/22 08:57:27;;;;;;;1.52;1.20;;;27.50;46.80;;;;;;5041429;28;20502;-63
2023/06/22 08:59:53;;;;;;;3.47;1.23;;;27.50;46.80;;;;;;5025318;28;20057;-61
2023/06/22 09:02:20;;;;;;;1.85;1.50;;;27.50;46.80;;;;;;5044418;28;20122;-63
2023/06/22 09:04:49;;;;;;;2.63;1.80;;;27.50;46.80;;;;;;5044002;28;20463;-61
2023/06/22 09:07:22;;;;;;;1.55;1.20;;;27.50;46.90;;;;;;5043314;28;20051;-63
2023/06/22 09:09:48;;;;;;;1.50;1.10;;;27.50;46.80;;;;;;5043367;28;20037;-63
2023/06/22 09:12:14;;;;;;;2.25;1.35;;;27.60;46.90;;;;;;5041515;28;20444;-61
2023/06/22 09:14:40;;;;;;;2.60;1.40;;;27.60;46.80;;;;;;5038248;28;20040;-61
2023/06/22 09:17:06;;;;;;;1.63;1.17;;;27.60;46.80;;;;;;5049220;28;20112;-62
2023/06/22 09:19:32;;;;;;;1.85;1.42;;;27.60;46.70;;;;;;5049357;28;20048;-62
2023/06/22 09:21:57;;;;;;;2.83;1.42;;;27.60;46.70;;;;;;5050442;28;20325;-63
2023/06/22 09:24:23;;;;;;;1.42;1.33;;;27.60;46.60;;;;;;5051238;28;20032;-63
2023/06/22 09:26:50;;;;;;;1.73;1.35;;;27.60;46.50;;;;;;5049901;28;20032;-61
2023/06/22 09:29:16;;;;;;;1.33;1.20;;;27.60;46.50;;;;;;5034432;28;20318;-59
2023/06/22 09:31:42;;;;;;;2.22;1.33;;;27.60;46.40;;;;;;5052277;28;20092;-63
2023/06/22 09:34:08;;;;;;;2.08;1.17;;;27.70;46.40;;;;;;5050817;28;20340;-62
2023/06/22 09:36:35;;;;;;;1.77;1.40;;;27.70;46.40;;;;;;5047577;28;20037;-63
2023/06/22 09:39:05;;;;;;;2.08;1.60;;;27.70;46.40;;;;;;5036030;28;20099;-63
2023/06/22 09:41:31;;;;;;;1.35;1.13;;;27.70;46.30;;;;;;5042604;28;20056;-62
2023/06/22 09:43:57;;;;;;;1.67;1.25;;;27.70;46.30;;;;;;5043582;28;20356;-63
2023/06/22 09:46:26;;;;;;;1.58;1.20;;;27.70;46.20;;;;;;5044896;28;20455;-62
2023/06/22 09:48:52;;;;;;;2.65;1.40;;;27.70;46.10;;;;;;5043979;28;20026;-61
2023/06/22 09:51:19;;;;;;;1.30;1.20;;;27.70;46.10;;;;;;5040224;28;20037;-61
2023/06/22 09:53:45;;;;;;;1.40;1.30;;;27.70;46.00;;;;;;5025685;28;20120;-65
2023/06/22 09:56:14;;;;;;;1.30;1.20;;;27.70;46.00;;;;;;5043988;28;20199;-63
2023/06/22 09:58:43;;;;;;;3.22;1.50;;;27.70;45.90;;;;;;5044134;28;20394;-61
2023/06/22 10:01:10;;;;;;;1.42;1.10;;;27.70;45.90;;;;;;5037108;28;20036;-62
2023/06/22 10:03:36;;;;;;;1.02;0.95;;;27.70;45.80;;;;;;5039819;28;20448;-60
2023/06/22 10:06:03;;;;;;;1.40;1.30;;;27.80;45.80;;;;;;5042907;28;20082;-61
2023/06/22 10:08:29;;;;;;;1.40;1.25;;;27.80;45.80;;;;;;5042210;28;20506;-59
2023/06/22 10:10:55;;;;;;;1.42;1.23;;;27.80;45.80;;;;;;5045097;28;20083;-60
2023/06/22 10:13:20;;;;;;;1.38;1.20;;;27.80;45.70;;;;;;5050768;28;20044;-63
2023/06/22 10:15:51;;;;;;;1.70;1.50;;;27.80;45.70;;;;;;5032592;28;20019;-61
2023/06/22 10:18:20;;;;;;;1.73;1.40;;;27.80;45.60;;;;;;5048107;28;20413;-59
2023/06/22 10:20:53;;;;;;;1.63;1.48;;;27.80;45.60;;;;;;5050729;28;20131;-60
2023/06/22 10:23:22;;;;;;;1.48;1.20;;;27.80;45.50;;;;;;5046234;28;20033;-60
2023/06/22 10:25:48;;;;;;;1.80;1.60;;;27.80;45.50;;;;;;5033271;28;20425;-59
2023/06/22 10:28:14;;;;;;;1.30;1.02;;;27.80;45.50;;;;;;5031977;28;20103;-61
2023/06/22 10:30:41;;;;;;;1.55;1.35;;;27.80;45.40;;;;;;5031197;28;20025;-62
2023/06/22 10:33:10;;;;;;;1.60;1.35;;;27.80;45.30;;;;;;5016610;28;20380;-60
2023/06/22 10:35:40;;;;;;;1.65;1.40;;;27.80;45.20;;;;;;5029889;28;20059;-61
2023/06/22 10:38:06;;;;;;;1.52;1.33;;;27.80;45.30;;;;;;5048781;28;20037;-61
2023/06/22 10:40:33;;;;;;;2.10;1.88;;;27.80;45.40;;;;;;5047941;28;20025;-61
2023/06/22 10:42:59;;;;;;;2.15;1.60;;;27.80;45.40;;;;;;5043049;28;20419;-62
2023/06/22 10:45:24;;;;;;;1.98;1.23;;;27.80;45.50;;;;;;5041453;28;20021;-62
2023/06/22 10:47:50;;;;;;;1.50;1.40;;;27.80;45.50;;;;;;5044368;28;20025;-59
2023/06/22 10:50:17;;;;;;;2.35;1.67;;;27.80;45.50;;;;;;5043132;28;20056;-60
2023/06/22 10:52:43;;;;;;;3.53;1.25;;;27.80;45.50;;;;;;5040632;28;20036;-64
2023/06/22 10:55:10;;;;;;;3.90;1.35;;;27.80;45.40;;;;;;5046752;28;20029;-64
2023/06/22 10:57:36;;;;;;;1.30;1.20;;;27.80;45.40;;;;;;5044218;28;20105;-60
2023/06/22 11:00:05;;;;;;;1.48;1.30;;;27.80;45.40;;;;;;5047735;28;20103;-61
2023/06/22 11:02:31;;;;;;;1.50;1.40;;;27.80;45.40;;;;;;5043749;28;20029;-60
2023/06/22 11:05:00;;;;;;;1.60;1.50;;;27.80;45.40;;;;;;5037020;28;20055;-60
2023/06/22 11:07:28;;;;;;;1.35;1.25;;;27.80;45.40;;;;;;5041658;28;20127;-58
2023/06/22 11:09:54;;;;;;;1.20;1.10;;;27.90;45.40;;;;;;5034017;28;20090;-61
2023/06/22 11:12:20;;;;;;;1.63;1.50;;;27.80;45.30;;;;;;5040746;28;20043;-60
2023/06/22 11:14:46;;;;;;;1.35;1.25;;;27.80;45.20;;;;;;5044848;28;20077;-61
2023/06/22 11:17:12;;;;;;;1.50;1.35;;;27.80;45.20;;;;;;5038973;28;20048;-57
2023/06/22 11:19:38;;;;;;;2.10;1.40;;;27.90;45.30;;;;;;5042705;28;20313;-56
2023/06/22 11:22:04;;;;;;;2.03;1.40;;;27.80;45.10;;;;;;5043552;28;20033;-60
2023/06/22 11:24:30;;;;;;;2.38;2.03;;;27.90;45.10;;;;;;5034278;28;20105;-60
2023/06/22 11:26:56;;;;;;;4.25;1.50;;;27.90;45.10;;;;;;5043744;28;20416;-61
2023/06/22 11:29:22;;;;;;;2.95;2.00;;;27.90;45.20;;;;;;5023368;28;20033;-62
2023/06/22 11:31:49;;;;;;;2.25;1.90;;;27.90;45.40;;;;;;5045148;28;20364;-59
2023/06/22 11:34:15;;;;;;;2.67;2.03;;;27.90;45.50;;;;;;5044879;28;20102;-62
2023/06/22 11:36:41;;;;;;;2.85;2.40;;;27.90;45.60;;;;;;5046431;28;20037;-58
2023/06/22 11:39:09;;;;;;;2.75;2.40;;;27.90;45.80;;;;;;5049274;28;20052;-62
2023/06/22 11:41:35;;;;;;;2.67;2.00;;;27.80;45.80;;;;;;5033691;28;20435;-63
2023/06/22 11:44:01;;;;;;;2.42;2.08;;;27.80;46.00;;;;;;5033279;28;20132;-61
2023/06/22 11:46:27;;;;;;;2.78;2.03;;;27.80;46.20;;;;;;5043234;28;20028;-59
2023/06/22 11:48:53;;;;;;;3.40;2.05;;;27.80;46.30;;;;;;5048396;28;20122;-59
2023/06/22 11:51:19;;;;;;;3.08;2.30;;;27.80;46.50;;;;;;5044937;28;20033;-61
2023/06/22 11:53:45;;;;;;;2.65;2.00;;;27.80;46.70;;;;;;5025048;28;20051;-60
2023/06/22 11:56:11;;;;;;;3.58;2.00;;;27.80;46.90;;;;;;5028747;28;20056;-60
2023/06/22 11:58:36;;;;;;;2.83;1.80;;;27.80;47.10;;;;;;5035889;28;20428;-60
2023/06/22 12:01:02;;;;;;;3.50;2.15;;;27.80;47.20;;;;;;5045271;28;20084;-58
2023/06/22 12:03:28;;;;;;;2.50;1.83;;;27.80;47.50;;;;;;5019872;28;20040;-59
2023/06/22 12:05:54;;;;;;;5.55;2.00;;;27.80;47.60;;;;;;5053727;28;20112;-61
2023/06/22 12:08:21;;;;;;;3.05;1.95;;;27.80;47.70;;;;;;5045702;28;20069;-59
2023/06/22 12:10:46;;;;;;;2.88;1.85;;;27.80;47.90;;;;;;5053166;28;20029;-61
2023/06/22 12:13:12;;;;;;;2.53;1.90;;;27.80;48.00;;;;;;5052012;28;20502;-60
2023/06/22 12:15:38;;;;;;;2.55;2.03;;;27.80;48.10;;;;;;5031088;28;20543;-59
2023/06/22 12:18:04;;;;;;;2.88;1.98;;;27.80;48.30;;;;;;5050221;28;20432;-57
2023/06/22 12:20:30;;;;;;;2.97;2.08;;;27.70;48.40;;;;;;5053543;28;20111;-60
2023/06/22 12:22:58;;;;;;;2.30;2.10;;;27.70;48.50;;;;;;5031655;28;20104;-61
2023/06/22 12:25:24;;;;;;;2.50;2.03;;;27.70;48.70;;;;;;5045292;28;20052;-59
2023/06/22 12:27:50;;;;;;;3.80;1.85;;;27.70;48.90;;;;;;5034306;28;20397;-63
2023/06/22 12:30:17;;;;;;;2.65;2.25;;;27.70;49.10;;;;;;5034380;28;20029;-62
2023/06/22 12:32:42;;;;;;;2.40;1.92;;;27.70;49.30;;;;;;5026648;28;20040;-65
2023/06/22 12:35:13;;;;;;;3.20;2.10;;;27.70;49.60;;;;;;5053167;28;20033;-59
2023/06/22 12:37:42;;;;;;;2.28;2.08;;;27.70;49.80;;;;;;5035014;28;20079;-61
2023/06/22 12:40:09;;;;;;;3.15;2.30;;;27.70;50.00;;;;;;5033199;28;20056;-60
2023/06/22 12:42:34;;;;;;;2.88;2.05;;;27.70;50.20;;;;;;5051760;28;20102;-62
2023/06/22 12:45:00;;;;;;;2.53;1.95;;;27.70;50.20;;;;;;5048710;28;20116;-61
2023/06/22 12:47:26;;;;;;;2.08;1.80;;;27.70;50.40;;;;;;5051876;28;20121;-61
2023/06/22 12:49:53;;;;;;;2.20;2.00;;;27.70;50.60;;;;;;5049383;28;20131;-60